createdAt,value
2018-12-27T00:00:10.178Z,83.72
2018-12-27T00:01:10.191Z,83.40
2018-12-27T00:02:10.144Z,83.30
2018-12-27T00:03:10.133Z,83.30
2018-12-27T00:04:10.128Z,83.06
2018-12-27T00:05:10.141Z,82.78
2018-12-27T00:06:10.130Z,82.36
2018-12-27T00:07:10.099Z,83.40
2018-12-27T00:08:10.077Z,83.51
2018-12-27T00:09:10.071Z,83.30
2018-12-27T00:10:10.055Z,83.30
2018-12-27T00:11:10.086Z,83.30
2018-12-27T00:12:10.042Z,83.93
2018-12-27T00:13:10.033Z,84.24
2018-12-27T00:14:10.013Z,84.45
2018-12-27T00:15:10.001Z,84.24
2018-12-27T00:16:10.015Z,83.83
2018-12-27T00:17:09.980Z,83.72
2018-12-27T00:18:09.993Z,83.51
2018-12-27T00:19:09.961Z,83.83
2018-12-27T00:20:09.956Z,83.72
2018-12-27T00:21:09.945Z,83.72
2018-12-27T00:22:09.949Z,83.78
2018-12-27T00:23:09.928Z,84.41
2018-12-27T00:24:09.904Z,83.62
2018-12-27T00:25:09.921Z,83.30
2018-12-27T00:26:09.881Z,83.51
2018-12-27T00:27:09.874Z,84.03
2018-12-27T00:28:09.891Z,83.20
2018-12-27T00:29:09.852Z,84.03
2018-12-27T00:30:09.837Z,84.03
2018-12-27T00:31:09.828Z,83.93
2018-12-27T00:32:09.822Z,84.34
2018-12-27T00:33:09.820Z,84.24
2018-12-27T00:34:09.791Z,83.93
2018-12-27T00:35:09.781Z,84.24
2018-12-27T00:36:09.770Z,83.72
2018-12-27T00:37:09.760Z,83.51
2018-12-27T00:38:09.799Z,83.51
2018-12-27T00:39:09.736Z,83.40
2018-12-27T00:40:09.728Z,83.30
2018-12-27T00:41:09.718Z,83.06
2018-12-27T00:42:09.719Z,83.40
2018-12-27T00:43:09.734Z,83.93
2018-12-27T00:44:09.682Z,83.83
2018-12-27T00:45:09.675Z,84.03
2018-12-27T00:46:09.660Z,83.93
2018-12-27T00:47:09.650Z,84.14
2018-12-27T00:48:09.677Z,84.24
2018-12-27T00:49:09.652Z,84.45
2018-12-27T00:50:09.613Z,84.87
2018-12-27T00:51:09.603Z,84.45
2018-12-27T00:52:09.593Z,84.87
2018-12-27T00:53:09.616Z,84.07
2018-12-27T00:54:09.578Z,84.14
2018-12-27T00:55:09.664Z,83.83
2018-12-27T00:56:09.547Z,83.72
2018-12-27T00:57:09.537Z,83.51
2018-12-27T00:58:09.576Z,83.51
2018-12-27T00:59:09.526Z,83.30
2018-12-27T01:00:09.506Z,83.40
2018-12-27T01:01:09.495Z,83.51
2018-12-27T01:02:09.482Z,83.20
2018-12-27T01:03:11.303Z,83.86
2018-12-27T01:04:09.460Z,83.44
2018-12-27T01:05:09.472Z,83.51
2018-12-27T01:06:09.446Z,83.30
2018-12-27T01:07:09.432Z,83.51
2018-12-27T01:08:09.449Z,82.78
2018-12-27T01:09:09.406Z,83.40
2018-12-27T01:10:09.419Z,82.89
2018-12-27T01:11:09.384Z,82.74
2018-12-27T01:12:09.372Z,82.84
2018-12-27T01:13:09.391Z,82.26
2018-12-27T01:14:09.384Z,82.57
2018-12-27T01:15:09.352Z,82.36
2018-12-27T01:16:09.336Z,82.26
2018-12-27T01:17:09.321Z,82.36
2018-12-27T01:18:09.308Z,82.22
2018-12-27T01:19:09.332Z,81.70
2018-12-27T01:20:09.319Z,81.70
2018-12-27T01:21:09.282Z,82.43
2018-12-27T01:22:09.266Z,82.53
2018-12-27T01:23:09.249Z,83.37
2018-12-27T01:24:09.238Z,83.09
2018-12-27T01:25:09.259Z,81.84
2018-12-27T01:26:09.249Z,81.84
2018-12-27T01:27:09.209Z,82.36
2018-12-27T01:28:09.195Z,82.64
2018-12-27T01:29:09.203Z,82.78
2018-12-27T01:30:09.186Z,82.89
2018-12-27T01:31:09.193Z,83.40
2018-12-27T01:32:09.164Z,83.72
2018-12-27T01:33:09.139Z,84.03
2018-12-27T01:34:09.133Z,83.83
2018-12-27T01:35:09.163Z,83.83
2018-12-27T01:36:09.106Z,84.14
2018-12-27T01:37:09.136Z,84.49
2018-12-27T01:38:09.102Z,84.49
2018-12-27T01:39:09.078Z,84.28
2018-12-27T01:40:09.102Z,83.97
2018-12-27T01:41:09.056Z,83.62
2018-12-27T01:42:09.045Z,83.83
2018-12-27T01:43:09.037Z,83.83
2018-12-27T01:44:09.027Z,84.24
2018-12-27T01:45:09.037Z,83.83
2018-12-27T01:46:09.010Z,83.83
2018-12-27T01:47:08.994Z,83.83
2018-12-27T01:48:08.979Z,83.30
2018-12-27T01:49:08.964Z,83.83
2018-12-27T01:50:08.996Z,83.40
2018-12-27T01:51:08.940Z,83.83
2018-12-27T01:52:08.930Z,83.93
2018-12-27T01:53:08.924Z,84.14
2018-12-27T01:54:08.908Z,84.56
2018-12-27T01:55:08.935Z,84.45
2018-12-27T01:56:08.900Z,84.34
2018-12-27T01:57:08.885Z,84.34
2018-12-27T01:58:08.866Z,84.49
2018-12-27T01:59:08.853Z,84.49
2018-12-27T02:00:08.866Z,84.49
2018-12-27T02:01:08.839Z,84.28
2018-12-27T02:02:08.832Z,84.34
2018-12-27T02:03:08.852Z,84.03
2018-12-27T02:04:08.799Z,84.03
2018-12-27T02:05:08.813Z,83.86
2018-12-27T02:06:08.807Z,83.83
2018-12-27T02:07:08.770Z,83.44
2018-12-27T02:08:08.792Z,83.40
2018-12-27T02:09:08.740Z,83.83
2018-12-27T02:10:08.732Z,83.72
2018-12-27T02:11:08.745Z,84.03
2018-12-27T02:12:08.707Z,84.34
2018-12-27T02:13:08.703Z,84.03
2018-12-27T02:14:08.710Z,84.24
2018-12-27T02:15:08.678Z,84.24
2018-12-27T02:16:08.667Z,84.14
2018-12-27T02:17:08.680Z,84.45
2018-12-27T02:18:08.674Z,84.24
2018-12-27T02:19:08.633Z,84.77
2018-12-27T02:20:08.625Z,84.24
2018-12-27T02:21:08.619Z,84.34
2018-12-27T02:22:08.599Z,84.24
2018-12-27T02:23:08.627Z,84.14
2018-12-27T02:24:08.595Z,84.24
2018-12-27T02:25:08.566Z,84.49
2018-12-27T02:26:08.592Z,84.24
2018-12-27T02:27:08.552Z,84.34
2018-12-27T02:28:08.565Z,84.49
2018-12-27T02:29:08.535Z,84.97
2018-12-27T02:30:08.513Z,84.91
2018-12-27T02:31:08.503Z,84.87
2018-12-27T02:32:08.514Z,84.70
2018-12-27T02:33:08.488Z,84.56
2018-12-27T02:34:08.473Z,85.01
2018-12-27T02:35:08.461Z,84.70
2018-12-27T02:36:08.445Z,85.12
2018-12-27T02:37:08.469Z,84.80
2018-12-27T02:38:08.423Z,85.43
2018-12-27T02:39:08.416Z,85.33
2018-12-27T02:40:08.404Z,85.43
2018-12-27T02:41:08.395Z,85.22
2018-12-27T02:42:08.403Z,85.33
2018-12-27T02:43:08.394Z,85.53
2018-12-27T02:44:08.357Z,85.22
2018-12-27T02:45:08.363Z,84.80
2018-12-27T02:46:08.332Z,84.59
2018-12-27T02:47:08.320Z,84.39
2018-12-27T02:48:08.356Z,84.28
2018-12-27T02:49:08.322Z,83.97
2018-12-27T02:50:08.322Z,83.76
2018-12-27T02:51:08.301Z,83.65
2018-12-27T02:52:08.267Z,83.72
2018-12-27T02:53:08.282Z,83.23
2018-12-27T02:54:08.242Z,82.78
2018-12-27T02:55:08.273Z,82.92
2018-12-27T02:56:08.239Z,83.20
2018-12-27T02:57:08.239Z,83.09
2018-12-27T02:58:08.200Z,83.40
2018-12-27T02:59:08.190Z,83.13
2018-12-27T03:00:08.209Z,83.34
2018-12-27T03:01:08.179Z,83.13
2018-12-27T03:02:08.159Z,82.78
2018-12-27T03:03:08.168Z,82.60
2018-12-27T03:04:08.135Z,82.60
2018-12-27T03:05:08.148Z,82.82
2018-12-27T03:06:08.114Z,84.07
2018-12-27T03:07:08.126Z,84.70
2018-12-27T03:08:08.125Z,83.23
2018-12-27T03:09:08.109Z,83.55
2018-12-27T03:10:08.089Z,83.76
2018-12-27T03:11:08.079Z,83.34
2018-12-27T03:12:08.047Z,83.23
2018-12-27T03:13:08.043Z,83.34
2018-12-27T03:14:08.025Z,83.34
2018-12-27T03:15:08.025Z,83.44
2018-12-27T03:16:08.035Z,83.34
2018-12-27T03:17:08.012Z,83.55
2018-12-27T03:18:07.980Z,83.44
2018-12-27T03:19:07.973Z,83.44
2018-12-27T03:20:08.005Z,83.34
2018-12-27T03:21:07.966Z,83.34
2018-12-27T03:22:07.945Z,83.34
2018-12-27T03:23:07.943Z,83.23
2018-12-27T03:24:07.924Z,83.38
2018-12-27T03:25:07.902Z,83.44
2018-12-27T03:26:07.926Z,83.65
2018-12-27T03:27:07.880Z,83.69
2018-12-27T03:28:07.869Z,83.76
2018-12-27T03:29:07.860Z,83.90
2018-12-27T03:30:07.853Z,83.44
2018-12-27T03:31:07.865Z,83.38
2018-12-27T03:32:07.829Z,84.00
2018-12-27T03:33:07.837Z,84.17
2018-12-27T03:34:07.803Z,84.32
2018-12-27T03:35:07.823Z,84.42
2018-12-27T03:36:07.806Z,84.32
2018-12-27T03:37:07.803Z,84.53
2018-12-27T03:38:07.787Z,84.53
2018-12-27T03:39:07.787Z,84.53
2018-12-27T03:40:07.735Z,84.32
2018-12-27T03:41:07.726Z,84.07
2018-12-27T03:42:07.718Z,84.49
2018-12-27T03:43:07.735Z,84.17
2018-12-27T03:44:07.694Z,84.32
2018-12-27T03:45:07.699Z,84.17
2018-12-27T03:46:07.690Z,84.11
2018-12-27T03:47:07.660Z,84.42
2018-12-27T03:48:07.674Z,84.11
2018-12-27T03:49:07.639Z,84.17
2018-12-27T03:50:07.665Z,83.86
2018-12-27T03:51:07.617Z,84.39
2018-12-27T03:52:07.643Z,84.28
2018-12-27T03:53:07.594Z,84.39
2018-12-27T03:54:07.606Z,84.53
2018-12-27T03:55:07.574Z,84.32
2018-12-27T03:56:07.565Z,84.00
2018-12-27T03:57:07.565Z,84.00
2018-12-27T03:58:07.535Z,84.39
2018-12-27T03:59:07.550Z,84.28
2018-12-27T04:00:07.516Z,84.00
2018-12-27T04:01:07.506Z,83.97
2018-12-27T04:02:07.546Z,84.39
2018-12-27T04:03:07.490Z,84.49
2018-12-27T04:04:07.480Z,84.39
2018-12-27T04:05:07.490Z,84.00
2018-12-27T04:06:07.458Z,84.17
2018-12-27T04:07:07.473Z,83.76
2018-12-27T04:08:07.436Z,83.97
2018-12-27T04:09:07.423Z,85.05
2018-12-27T04:10:07.438Z,85.05
2018-12-27T04:11:07.395Z,85.58
2018-12-27T04:12:07.384Z,85.26
2018-12-27T04:13:07.395Z,85.58
2018-12-27T04:14:07.397Z,85.16
2018-12-27T04:15:07.374Z,85.68
2018-12-27T04:16:07.344Z,85.47
2018-12-27T04:17:07.327Z,84.95
2018-12-27T04:18:07.344Z,85.30
2018-12-27T04:19:07.308Z,85.30
2018-12-27T04:20:07.297Z,85.19
2018-12-27T04:21:07.316Z,85.09
2018-12-27T04:22:07.287Z,85.19
2018-12-27T04:23:07.280Z,85.19
2018-12-27T04:24:07.255Z,85.19
2018-12-27T04:25:07.242Z,85.93
2018-12-27T04:26:07.254Z,85.82
2018-12-27T04:27:07.219Z,86.04
2018-12-27T04:28:07.218Z,86.45
2018-12-27T04:29:07.207Z,86.35
2018-12-27T04:30:07.200Z,86.18
2018-12-27T04:31:07.206Z,85.41
2018-12-27T04:32:07.206Z,85.19
2018-12-27T04:33:07.150Z,85.30
2018-12-27T04:34:09.589Z,85.72
2018-12-27T04:35:07.136Z,85.30
2018-12-27T04:36:07.148Z,84.99
2018-12-27T04:37:07.109Z,85.19
2018-12-27T04:38:07.119Z,84.99
2018-12-27T04:39:07.089Z,84.78
2018-12-27T04:40:07.095Z,84.78
2018-12-27T04:41:07.070Z,84.88
2018-12-27T04:42:07.050Z,85.09
2018-12-27T04:43:07.043Z,84.56
2018-12-27T04:44:07.035Z,84.99
2018-12-27T04:45:07.045Z,84.99
2018-12-27T04:46:07.026Z,84.56
2018-12-27T04:47:06.997Z,84.88
2018-12-27T04:48:07.026Z,84.99
2018-12-27T04:49:07.072Z,85.51
2018-12-27T04:50:06.984Z,85.61
2018-12-27T04:51:06.959Z,84.99
2018-12-27T04:52:06.942Z,85.41
2018-12-27T04:53:06.974Z,85.51
2018-12-27T04:54:06.922Z,85.34
2018-12-27T04:55:06.911Z,85.13
2018-12-27T04:56:06.907Z,84.92
2018-12-27T04:57:06.914Z,85.34
2018-12-27T04:58:06.887Z,85.13
2018-12-27T04:59:06.862Z,84.88
2018-12-27T05:00:06.851Z,85.30
2018-12-27T05:01:06.856Z,85.09
2018-12-27T05:02:06.860Z,84.99
2018-12-27T05:03:06.850Z,84.99
2018-12-27T05:04:06.813Z,85.51
2018-12-27T05:05:06.827Z,84.99
2018-12-27T05:06:06.782Z,85.24
2018-12-27T05:07:06.821Z,84.92
2018-12-27T05:08:06.792Z,85.02
2018-12-27T05:09:06.754Z,85.44
2018-12-27T05:10:06.752Z,85.24
2018-12-27T05:11:06.767Z,85.34
2018-12-27T05:12:06.719Z,85.02
2018-12-27T05:13:06.707Z,85.34
2018-12-27T05:14:06.731Z,85.02
2018-12-27T05:15:06.700Z,85.34
2018-12-27T05:16:06.679Z,85.34
2018-12-27T05:17:06.660Z,84.92
2018-12-27T05:18:06.688Z,85.13
2018-12-27T05:19:06.646Z,85.13
2018-12-27T05:20:06.654Z,85.55
2018-12-27T05:21:06.649Z,84.92
2018-12-27T05:22:06.617Z,85.75
2018-12-27T05:23:06.609Z,84.92
2018-12-27T05:24:06.587Z,85.13
2018-12-27T05:25:06.571Z,85.65
2018-12-27T05:26:06.611Z,85.44
2018-12-27T05:27:06.597Z,85.34
2018-12-27T05:28:06.547Z,85.55
2018-12-27T05:29:06.529Z,85.13
2018-12-27T05:30:06.520Z,85.13
2018-12-27T05:31:06.521Z,85.17
2018-12-27T05:32:06.521Z,85.65
2018-12-27T05:33:06.513Z,85.59
2018-12-27T05:34:06.479Z,85.48
2018-12-27T05:35:06.499Z,85.80
2018-12-27T05:36:06.468Z,86.43
2018-12-27T05:37:06.437Z,86.57
2018-12-27T05:38:06.456Z,86.22
2018-12-27T05:39:06.419Z,86.22
2018-12-27T05:40:06.428Z,86.63
2018-12-27T05:41:06.409Z,86.32
2018-12-27T05:42:06.388Z,86.11
2018-12-27T05:43:06.371Z,86.05
2018-12-27T05:44:06.382Z,86.36
2018-12-27T05:45:06.357Z,86.32
2018-12-27T05:46:06.364Z,85.90
2018-12-27T05:47:06.327Z,86.11
2018-12-27T05:48:06.335Z,86.11
2018-12-27T05:49:06.351Z,86.25
2018-12-27T05:50:06.354Z,86.43
2018-12-27T05:51:06.311Z,86.32
2018-12-27T05:52:06.271Z,86.46
2018-12-27T05:53:06.306Z,85.90
2018-12-27T05:54:06.248Z,86.32
2018-12-27T05:55:06.283Z,85.69
2018-12-27T05:56:06.250Z,85.90
2018-12-27T05:57:06.223Z,86.00
2018-12-27T05:58:06.249Z,85.48
2018-12-27T05:59:06.197Z,85.69
2018-12-27T06:00:06.205Z,85.59
2018-12-27T06:01:06.187Z,85.48
2018-12-27T06:02:06.170Z,85.59
2018-12-27T06:03:06.159Z,85.69
2018-12-27T06:04:06.149Z,85.69
2018-12-27T06:05:06.173Z,86.22
2018-12-27T06:06:06.113Z,86.22
2018-12-27T06:07:06.106Z,86.32
2018-12-27T06:08:06.096Z,86.11
2018-12-27T06:09:06.116Z,86.15
2018-12-27T06:10:06.106Z,86.78
2018-12-27T06:11:06.066Z,86.53
2018-12-27T06:12:06.056Z,86.88
2018-12-27T06:13:06.044Z,86.36
2018-12-27T06:14:06.033Z,86.68
2018-12-27T06:15:06.055Z,86.88
2018-12-27T06:16:06.025Z,86.99
2018-12-27T06:17:05.991Z,87.97
2018-12-27T06:18:05.988Z,87.66
2018-12-27T06:19:05.980Z,87.66
2018-12-27T06:20:05.975Z,88.07
2018-12-27T06:21:05.992Z,88.18
2018-12-27T06:22:05.968Z,88.81
2018-12-27T06:23:05.944Z,88.96
2018-12-27T06:24:05.918Z,89.37
2018-12-27T06:25:05.907Z,89.06
2018-12-27T06:26:05.897Z,88.96
2018-12-27T06:27:05.917Z,89.06
2018-12-27T06:28:05.975Z,88.60
2018-12-27T06:29:05.860Z,87.97
2018-12-27T06:30:05.848Z,87.97
2018-12-27T06:31:05.902Z,87.34
2018-12-27T06:32:05.824Z,87.34
2018-12-27T06:33:05.851Z,87.13
2018-12-27T06:34:05.813Z,86.78
2018-12-27T06:35:05.811Z,86.25
2018-12-27T06:36:05.835Z,86.57
2018-12-27T06:37:05.796Z,86.25
2018-12-27T06:38:05.761Z,86.57
2018-12-27T06:39:05.752Z,86.68
2018-12-27T06:40:05.754Z,85.94
2018-12-27T06:41:05.773Z,86.15
2018-12-27T06:42:05.732Z,86.78
2018-12-27T06:43:05.724Z,86.46
2018-12-27T06:44:05.744Z,86.36
2018-12-27T06:45:05.690Z,86.68
2018-12-27T06:46:05.704Z,86.68
2018-12-27T06:47:05.661Z,86.99
2018-12-27T06:48:05.666Z,86.46
2018-12-27T06:49:05.652Z,86.57
2018-12-27T06:50:05.640Z,86.68
2018-12-27T06:51:05.672Z,86.15
2018-12-27T06:52:05.624Z,86.88
2018-12-27T06:53:05.644Z,86.57
2018-12-27T06:54:05.588Z,86.36
2018-12-27T06:55:05.579Z,86.78
2018-12-27T06:56:05.567Z,86.36
2018-12-27T06:57:05.560Z,86.57
2018-12-27T06:58:05.572Z,86.36
2018-12-27T06:59:05.529Z,86.46
2018-12-27T07:00:05.560Z,86.78
2018-12-27T07:01:05.525Z,86.57
2018-12-27T07:02:05.515Z,86.57
2018-12-27T07:03:05.516Z,86.68
2018-12-27T07:04:05.473Z,86.88
2018-12-27T07:05:05.461Z,86.68
2018-12-27T07:06:05.459Z,86.46
2018-12-27T07:07:05.447Z,86.57
2018-12-27T07:08:05.454Z,86.36
2018-12-27T07:09:05.456Z,87.09
2018-12-27T07:10:05.441Z,87.09
2018-12-27T07:11:05.399Z,87.09
2018-12-27T07:12:05.384Z,86.99
2018-12-27T07:13:05.408Z,87.20
2018-12-27T07:14:05.371Z,87.20
2018-12-27T07:15:05.364Z,86.68
2018-12-27T07:16:05.353Z,86.36
2018-12-27T07:17:05.334Z,86.22
2018-12-27T07:18:05.359Z,86.11
2018-12-27T07:19:05.318Z,86.43
2018-12-27T07:20:05.318Z,86.11
2018-12-27T07:21:05.309Z,85.90
2018-12-27T07:22:05.334Z,86.53
2018-12-27T07:23:05.276Z,85.80
2018-12-27T07:24:05.262Z,85.48
2018-12-27T07:25:05.243Z,85.48
2018-12-27T07:26:05.245Z,85.69
2018-12-27T07:27:05.257Z,85.27
2018-12-27T07:28:05.227Z,84.96
2018-12-27T07:29:05.205Z,85.17
2018-12-27T07:30:05.227Z,85.38
2018-12-27T07:31:05.202Z,85.06
2018-12-27T07:32:05.198Z,85.06
2018-12-27T07:33:05.158Z,85.38
2018-12-27T07:34:05.150Z,85.27
2018-12-27T07:35:05.134Z,85.38
2018-12-27T07:36:05.158Z,85.38
2018-12-27T07:37:05.124Z,85.59
2018-12-27T07:38:05.098Z,85.38
2018-12-27T07:39:05.093Z,85.69
2018-12-27T07:40:05.088Z,85.69
2018-12-27T07:41:05.142Z,85.17
2018-12-27T07:42:05.057Z,84.96
2018-12-27T07:43:05.045Z,84.96
2018-12-27T07:44:05.078Z,85.27
2018-12-27T07:45:05.023Z,84.85
2018-12-27T07:46:10.890Z,84.64
2018-12-27T07:47:06.065Z,84.33
2018-12-27T07:48:04.993Z,84.33
2018-12-27T07:49:04.976Z,84.75
2018-12-27T07:50:05.014Z,84.22
2018-12-27T07:51:04.955Z,84.54
2018-12-27T07:52:04.945Z,84.54
2018-12-27T07:53:04.940Z,84.44
2018-12-27T07:54:04.923Z,84.08
2018-12-27T07:55:04.946Z,84.22
2018-12-27T07:56:04.894Z,83.87
2018-12-27T07:57:04.906Z,83.03
2018-12-27T07:58:04.893Z,83.45
2018-12-27T07:59:04.875Z,84.08
2018-12-27T08:00:04.878Z,83.35
2018-12-27T08:01:04.871Z,83.56
2018-12-27T08:02:04.853Z,83.21
2018-12-27T08:03:04.855Z,83.03
2018-12-27T08:04:04.807Z,82.68
2018-12-27T08:05:04.795Z,82.79
2018-12-27T08:06:04.801Z,82.68
2018-12-27T08:07:04.805Z,82.68
2018-12-27T08:08:04.773Z,82.89
2018-12-27T08:09:04.754Z,82.89
2018-12-27T08:10:04.749Z,82.43
2018-12-27T08:11:04.762Z,82.23
2018-12-27T08:12:04.719Z,82.68
2018-12-27T08:13:04.729Z,82.43
2018-12-27T08:14:04.697Z,83.17
2018-12-27T08:15:04.692Z,82.54
2018-12-27T08:16:04.726Z,81.92
2018-12-27T08:17:04.673Z,82.54
2018-12-27T08:18:04.652Z,82.86
2018-12-27T08:19:04.641Z,82.54
2018-12-27T08:20:04.632Z,83.03
2018-12-27T08:21:04.639Z,82.19
2018-12-27T08:22:04.623Z,82.40
2018-12-27T08:23:04.618Z,82.50
2018-12-27T08:24:04.608Z,82.02
2018-12-27T08:25:04.571Z,81.98
2018-12-27T08:26:04.562Z,82.50
2018-12-27T08:27:04.557Z,82.71
2018-12-27T08:28:04.574Z,81.98
2018-12-27T08:29:04.526Z,82.60
2018-12-27T08:30:04.528Z,83.13
2018-12-27T08:31:04.516Z,82.36
2018-12-27T08:32:04.493Z,82.40
2018-12-27T08:33:04.522Z,82.19
2018-12-27T08:34:04.483Z,82.29
2018-12-27T08:35:11.202Z,82.29
2018-12-27T08:36:05.450Z,82.67
2018-12-27T08:37:04.441Z,82.26
2018-12-27T08:38:04.458Z,82.26
2018-12-27T08:39:04.426Z,82.26
2018-12-27T08:40:04.433Z,82.67
2018-12-27T08:41:04.430Z,82.67
2018-12-27T08:42:04.385Z,82.15
2018-12-27T08:43:04.371Z,82.78
2018-12-27T08:44:04.364Z,82.46
2018-12-27T08:45:04.387Z,82.05
2018-12-27T08:46:04.342Z,82.36
2018-12-27T08:47:04.341Z,82.26
2018-12-27T08:48:04.319Z,81.73
2018-12-27T08:49:04.323Z,81.73
2018-12-27T08:50:04.345Z,81.63
2018-12-27T08:51:04.297Z,81.42
2018-12-27T08:52:04.287Z,81.52
2018-12-27T08:53:04.263Z,81.59
2018-12-27T08:54:04.266Z,81.28
2018-12-27T08:55:04.273Z,81.07
2018-12-27T08:56:04.227Z,81.38
2018-12-27T08:57:04.222Z,81.28
2018-12-27T08:58:04.202Z,81.07
2018-12-27T08:59:04.218Z,80.93
2018-12-27T09:00:04.225Z,80.82
2018-12-27T09:01:04.178Z,80.82
2018-12-27T09:02:04.176Z,81.13
2018-12-27T09:03:04.156Z,80.72
2018-12-27T09:04:04.142Z,80.82
2018-12-27T09:05:04.155Z,81.03
2018-12-27T09:06:04.144Z,79.95
2018-12-27T09:07:04.294Z,79.99
2018-12-27T09:08:04.100Z,80.20
2018-12-27T09:09:04.091Z,79.95
2018-12-27T09:10:04.094Z,79.95
2018-12-27T09:11:04.062Z,80.16
2018-12-27T09:12:04.052Z,80.16
2018-12-27T09:13:04.084Z,79.74
2018-12-27T09:14:04.029Z,79.95
2018-12-27T09:15:04.055Z,79.95
2018-12-27T09:16:04.015Z,79.74
2018-12-27T09:17:03.993Z,79.74
2018-12-27T09:18:04.007Z,79.74
2018-12-27T09:19:04.018Z,79.64
2018-12-27T09:20:03.962Z,79.39
2018-12-27T09:21:03.963Z,79.19
2018-12-27T09:22:03.940Z,79.39
2018-12-27T09:23:03.929Z,79.81
2018-12-27T09:24:03.951Z,79.64
2018-12-27T09:25:03.921Z,79.74
2018-12-27T09:26:03.896Z,79.60
2018-12-27T09:27:03.891Z,79.39
2018-12-27T09:28:03.886Z,79.50
2018-12-27T09:29:03.887Z,79.39
2018-12-27T09:30:03.851Z,79.08
2018-12-27T09:31:03.837Z,79.19
2018-12-27T09:32:03.828Z,79.53
2018-12-27T09:33:03.820Z,79.29
2018-12-27T09:34:03.836Z,78.77
2018-12-27T09:35:03.793Z,79.39
2018-12-27T09:36:03.784Z,79.39
2018-12-27T09:37:03.774Z,78.97
2018-12-27T09:38:03.759Z,79.39
2018-12-27T09:39:03.795Z,79.08
2018-12-27T09:40:03.753Z,78.42
2018-12-27T09:41:03.738Z,78.94
2018-12-27T09:42:03.730Z,78.73
2018-12-27T09:43:03.709Z,78.63
2018-12-27T09:44:03.722Z,78.66
2018-12-27T09:45:03.746Z,78.52
2018-12-27T09:46:03.677Z,78.00
2018-12-27T09:47:03.704Z,78.00
2018-12-27T09:48:03.654Z,77.90
2018-12-27T09:49:03.637Z,77.97
2018-12-27T09:50:03.685Z,77.45
2018-12-27T09:51:03.621Z,77.86
2018-12-27T09:52:03.616Z,77.45
2018-12-27T09:53:03.603Z,77.86
2018-12-27T09:54:03.587Z,77.45
2018-12-27T09:55:03.601Z,77.76
2018-12-27T09:56:03.574Z,77.13
2018-12-27T09:57:03.576Z,76.92
2018-12-27T09:58:03.544Z,77.34
2018-12-27T09:59:03.543Z,77.10
2018-12-27T10:00:03.542Z,77.03
2018-12-27T10:01:03.522Z,77.23
2018-12-27T10:02:03.496Z,76.78
2018-12-27T10:03:03.489Z,76.92
2018-12-27T10:04:03.501Z,76.30
2018-12-27T10:05:03.462Z,76.51
2018-12-27T10:06:04.629Z,76.61
2018-12-27T10:07:03.447Z,76.37
2018-12-27T10:08:03.438Z,76.16
2018-12-27T10:09:03.421Z,76.26
2018-12-27T10:10:03.425Z,76.47
2018-12-27T10:11:03.395Z,76.26
2018-12-27T10:12:03.392Z,74.91
2018-12-27T10:13:03.377Z,74.98
2018-12-27T10:14:03.384Z,75.29
2018-12-27T10:15:03.375Z,74.98
2018-12-27T10:16:03.369Z,74.87
2018-12-27T10:17:03.329Z,74.32
2018-12-27T10:18:03.322Z,74.53
2018-12-27T10:19:03.340Z,74.11
2018-12-27T10:20:03.303Z,74.32
2018-12-27T10:21:03.286Z,74.11
2018-12-27T10:22:03.307Z,73.87
2018-12-27T10:23:03.267Z,73.77
2018-12-27T10:24:03.268Z,73.87
2018-12-27T10:25:03.256Z,73.77
2018-12-27T10:26:03.260Z,73.77
2018-12-27T10:27:03.255Z,73.83
2018-12-27T10:28:03.214Z,73.83
2018-12-27T10:29:03.199Z,73.52
2018-12-27T10:30:03.195Z,72.80
2018-12-27T10:31:03.176Z,74.25
2018-12-27T10:32:03.200Z,73.87
2018-12-27T10:33:03.171Z,73.73
2018-12-27T10:34:03.157Z,73.94
2018-12-27T10:35:03.141Z,73.83
2018-12-27T10:36:03.144Z,73.42
2018-12-27T10:37:03.160Z,73.56
2018-12-27T10:38:03.106Z,73.73
2018-12-27T10:39:03.100Z,73.63
2018-12-27T10:40:03.079Z,74.04
2018-12-27T10:41:03.080Z,72.90
2018-12-27T10:42:03.080Z,73.11
2018-12-27T10:43:03.046Z,73.32
2018-12-27T10:44:03.049Z,73.21
2018-12-27T10:45:03.032Z,72.90
2018-12-27T10:46:03.018Z,73.39
2018-12-27T10:47:03.035Z,73.42
2018-12-27T10:48:03.008Z,73.00
2018-12-27T10:49:02.997Z,73.11
2018-12-27T10:50:02.979Z,72.24
2018-12-27T10:51:02.986Z,71.83
2018-12-27T10:52:02.954Z,71.93
2018-12-27T10:53:02.950Z,72.03
2018-12-27T10:54:02.992Z,72.03
2018-12-27T10:55:02.926Z,71.72
2018-12-27T10:56:02.936Z,71.80
2018-12-27T10:57:02.901Z,71.07
2018-12-27T10:58:02.893Z,71.07
2018-12-27T10:59:02.879Z,71.80
2018-12-27T11:00:02.871Z,71.69
2018-12-27T11:01:02.886Z,72.21
2018-12-27T11:02:02.886Z,71.80
2018-12-27T11:03:02.839Z,71.69
2018-12-27T11:04:02.828Z,71.90
2018-12-27T11:05:02.830Z,71.90
2018-12-27T11:06:02.826Z,72.11
2018-12-27T11:07:02.818Z,71.90
2018-12-27T11:08:02.782Z,71.80
2018-12-27T11:09:02.786Z,72.00
2018-12-27T11:10:02.762Z,72.11
2018-12-27T11:11:02.749Z,72.21
2018-12-27T11:12:02.794Z,71.48
2018-12-27T11:13:02.727Z,71.76
2018-12-27T11:14:02.727Z,71.14
2018-12-27T11:15:02.721Z,71.66
2018-12-27T11:16:02.702Z,72.07
2018-12-27T11:17:02.713Z,71.66
2018-12-27T11:18:02.689Z,71.86
2018-12-27T11:19:02.669Z,72.59
2018-12-27T11:20:02.661Z,71.55
2018-12-27T11:21:02.648Z,71.55
2018-12-27T11:22:02.672Z,71.86
2018-12-27T11:23:02.675Z,71.03
2018-12-27T11:24:02.647Z,71.97
2018-12-27T11:25:02.612Z,71.66
2018-12-27T11:26:02.598Z,71.66
2018-12-27T11:27:02.589Z,71.14
2018-12-27T11:28:02.622Z,71.14
2018-12-27T11:29:02.568Z,70.62
2018-12-27T11:30:02.568Z,71.14
2018-12-27T11:31:02.554Z,70.62
2018-12-27T11:32:02.578Z,72.07
2018-12-27T11:33:02.532Z,71.83
2018-12-27T11:34:02.514Z,71.52
2018-12-27T11:35:02.525Z,72.07
2018-12-27T11:36:02.509Z,71.73
2018-12-27T11:37:02.509Z,72.04
2018-12-27T11:38:02.476Z,72.14
2018-12-27T11:39:02.503Z,71.11
2018-12-27T11:40:02.524Z,71.11
2018-12-27T11:41:02.444Z,71.31
2018-12-27T11:42:02.435Z,70.79
2018-12-27T11:43:02.423Z,70.90
2018-12-27T11:44:02.435Z,70.48
2018-12-27T11:45:02.407Z,71.94
2018-12-27T11:46:02.396Z,70.69
2018-12-27T11:47:02.385Z,70.38
2018-12-27T11:48:02.378Z,70.38
2018-12-27T11:49:02.385Z,69.96
2018-12-27T11:50:02.351Z,71.00
2018-12-27T11:51:02.368Z,70.48
2018-12-27T11:52:02.330Z,70.79
2018-12-27T11:53:02.322Z,71.00
2018-12-27T11:54:02.328Z,69.86
2018-12-27T11:55:02.304Z,71.31
2018-12-27T11:56:02.312Z,71.31
2018-12-27T11:57:02.279Z,70.79
2018-12-27T11:58:02.279Z,69.86
2018-12-27T11:59:02.261Z,70.38
2018-12-27T12:00:02.252Z,69.76
2018-12-27T12:01:02.282Z,69.65
2018-12-27T12:02:02.244Z,69.65
2018-12-27T12:03:02.227Z,69.86
2018-12-27T12:04:02.227Z,69.62
2018-12-27T12:05:02.201Z,70.04
2018-12-27T12:06:03.355Z,69.62
2018-12-27T12:07:02.176Z,70.14
2018-12-27T12:08:02.176Z,70.25
2018-12-27T12:09:02.164Z,70.14
2018-12-27T12:10:02.154Z,69.93
2018-12-27T12:11:02.160Z,69.83
2018-12-27T12:12:02.132Z,69.83
2018-12-27T12:13:02.118Z,70.00
2018-12-27T12:14:02.149Z,69.52
2018-12-27T12:15:02.097Z,69.27
2018-12-27T12:16:02.095Z,69.79
2018-12-27T12:17:02.081Z,70.10
2018-12-27T12:18:02.064Z,69.52
2018-12-27T12:19:02.091Z,69.48
2018-12-27T12:20:02.051Z,69.17
2018-12-27T12:21:02.039Z,69.73
2018-12-27T12:22:02.028Z,69.90
2018-12-27T12:23:02.014Z,69.73
2018-12-27T12:24:02.039Z,69.69
2018-12-27T12:25:01.998Z,69.90
2018-12-27T12:26:01.985Z,69.59
2018-12-27T12:27:01.988Z,69.62
2018-12-27T12:28:01.971Z,69.83
2018-12-27T12:29:01.982Z,69.90
2018-12-27T12:30:01.944Z,70.00
2018-12-27T12:31:01.941Z,69.79
2018-12-27T12:32:01.937Z,69.79
2018-12-27T12:33:01.931Z,70.14
2018-12-27T12:34:01.924Z,70.21
2018-12-27T12:35:01.891Z,70.10
2018-12-27T12:36:01.905Z,69.83
2018-12-27T12:37:01.874Z,69.79
2018-12-27T12:38:01.888Z,69.59
2018-12-27T12:39:01.864Z,70.21
2018-12-27T12:40:01.853Z,70.21
2018-12-27T12:41:01.850Z,70.00
2018-12-27T12:42:01.823Z,69.79
2018-12-27T12:43:01.842Z,69.79
2018-12-27T12:44:01.804Z,69.69
2018-12-27T12:45:01.790Z,70.21
2018-12-27T12:46:01.780Z,70.00
2018-12-27T12:47:01.777Z,70.00
2018-12-27T12:48:01.781Z,69.69
2018-12-27T12:49:01.777Z,70.00
2018-12-27T12:50:01.754Z,70.00
2018-12-27T12:51:01.727Z,69.38
2018-12-27T12:52:01.720Z,69.48